createdAt,value
2018-11-11T00:00:06.951Z,10.80
2018-11-11T00:01:06.987Z,10.78
2018-11-11T00:02:07.020Z,10.84
2018-11-11T00:03:07.051Z,10.80
2018-11-11T00:04:07.088Z,10.76
2018-11-11T00:05:07.122Z,10.76
2018-11-11T00:06:07.151Z,10.80
2018-11-11T00:07:07.185Z,10.83
2018-11-11T00:08:07.218Z,10.69
2018-11-11T00:09:07.254Z,10.69
2018-11-11T00:10:07.286Z,10.62
2018-11-11T00:11:07.317Z,10.68
2018-11-11T00:12:07.359Z,10.57
2018-11-11T00:13:07.385Z,10.57
2018-11-11T00:14:07.418Z,10.57
2018-11-11T00:15:07.450Z,10.65
2018-11-11T00:16:07.487Z,10.68
2018-11-11T00:17:07.518Z,10.55
2018-11-11T00:18:07.549Z,10.68
2018-11-11T00:19:07.584Z,10.63
2018-11-11T00:20:07.616Z,10.72
2018-11-11T00:21:07.650Z,10.70
2018-11-11T00:22:07.683Z,10.63
2018-11-11T00:23:07.717Z,10.63
2018-11-11T00:24:07.751Z,10.55
2018-11-11T00:25:07.783Z,10.63
2018-11-11T00:26:07.816Z,10.57
2018-11-11T00:27:07.851Z,10.68
2018-11-11T00:28:07.892Z,10.72
2018-11-11T00:29:07.916Z,10.68
2018-11-11T00:30:07.947Z,10.70
2018-11-11T00:31:07.982Z,10.72
2018-11-11T00:32:08.018Z,10.69
2018-11-11T00:33:08.049Z,10.69
2018-11-11T00:34:08.080Z,10.73
2018-11-11T00:35:08.118Z,10.62
2018-11-11T00:36:08.147Z,10.63
2018-11-11T00:37:08.182Z,10.75
2018-11-11T00:38:08.213Z,10.65
2018-11-11T00:39:08.246Z,10.69
2018-11-11T00:40:08.283Z,10.58
2018-11-11T00:41:08.313Z,10.65
2018-11-11T00:42:08.346Z,10.69
2018-11-11T00:43:08.384Z,10.58
2018-11-11T00:44:08.414Z,10.58
2018-11-11T00:45:08.446Z,10.58
2018-11-11T00:46:08.479Z,10.72
2018-11-11T00:47:08.510Z,10.55
2018-11-11T00:48:08.545Z,10.65
2018-11-11T00:49:08.578Z,10.63
2018-11-11T00:50:08.610Z,10.58
2018-11-11T00:51:08.644Z,10.55
2018-11-11T00:52:08.679Z,10.54
2018-11-11T00:53:08.710Z,10.58
2018-11-11T00:54:08.743Z,10.58
2018-11-11T00:55:08.777Z,10.62
2018-11-11T00:56:08.811Z,10.60
2018-11-11T00:57:08.854Z,10.55
2018-11-11T00:58:08.876Z,10.55
2018-11-11T00:59:08.908Z,10.55
2018-11-11T01:00:08.942Z,10.54
2018-11-11T01:01:08.978Z,10.55
2018-11-11T01:02:09.008Z,10.42
2018-11-11T01:03:09.041Z,10.47
2018-11-11T01:04:09.075Z,10.43
2018-11-11T01:05:09.108Z,10.49
2018-11-11T01:06:09.140Z,10.44
2018-11-11T01:07:09.174Z,10.43
2018-11-11T01:08:09.206Z,10.49
2018-11-11T01:09:09.252Z,10.42
2018-11-11T01:10:09.277Z,10.44
2018-11-11T01:11:09.307Z,10.44
2018-11-11T01:12:09.360Z,10.55
2018-11-11T01:13:09.373Z,10.55
2018-11-11T01:14:09.405Z,10.55
2018-11-11T01:15:09.437Z,10.57
2018-11-11T01:16:09.471Z,10.52
2018-11-11T01:17:09.503Z,10.54
2018-11-11T01:18:09.537Z,10.54
2018-11-11T01:19:09.570Z,10.49
2018-11-11T01:20:09.606Z,10.58
2018-11-11T01:21:09.636Z,10.52
2018-11-11T01:22:09.673Z,10.46
2018-11-11T01:23:09.701Z,10.44
2018-11-11T01:24:09.739Z,10.44
2018-11-11T01:25:09.769Z,10.52
2018-11-11T01:26:09.801Z,10.55
2018-11-11T01:27:09.957Z,10.55
2018-11-11T01:28:09.872Z,10.57
2018-11-11T01:29:09.901Z,10.52
2018-11-11T01:30:09.934Z,10.55
2018-11-11T01:31:09.966Z,10.55
2018-11-11T01:32:09.999Z,10.55
2018-11-11T01:33:10.033Z,10.58
2018-11-11T01:34:10.065Z,10.55
2018-11-11T01:35:10.098Z,10.55
2018-11-11T01:36:10.131Z,10.57
2018-11-11T01:37:10.163Z,10.51
2018-11-11T01:38:10.198Z,10.52
2018-11-11T01:39:10.234Z,10.51
2018-11-11T01:40:10.264Z,10.62
2018-11-11T01:41:10.298Z,10.58
2018-11-11T01:42:10.330Z,10.62
2018-11-11T01:43:10.362Z,10.55
2018-11-11T01:44:10.396Z,10.60
2018-11-11T01:45:10.430Z,10.65
2018-11-11T01:46:10.461Z,10.54
2018-11-11T01:47:10.495Z,10.57
2018-11-11T01:48:10.532Z,10.65
2018-11-11T01:49:10.560Z,10.60
2018-11-11T01:50:10.593Z,10.58
2018-11-11T01:51:10.627Z,10.57
2018-11-11T01:52:10.661Z,10.60
2018-11-11T01:53:10.696Z,10.62
2018-11-11T01:54:10.730Z,10.70
2018-11-11T01:55:10.764Z,10.58
2018-11-11T01:56:10.797Z,10.65
2018-11-11T01:57:10.827Z,10.58
2018-11-11T01:58:10.861Z,10.65
2018-11-11T01:59:10.895Z,10.57
2018-11-11T02:00:10.926Z,10.63
2018-11-11T02:01:10.961Z,10.63
2018-11-11T02:02:10.991Z,10.62
2018-11-11T02:03:11.024Z,10.54
2018-11-11T02:04:11.058Z,10.66
2018-11-11T02:05:11.093Z,10.60
2018-11-11T02:06:11.123Z,10.52
2018-11-11T02:07:11.156Z,10.49
2018-11-11T02:08:11.194Z,10.55
2018-11-11T02:09:11.227Z,10.52
2018-11-11T02:10:11.256Z,10.44
2018-11-11T02:11:11.291Z,10.46
2018-11-11T02:12:11.322Z,10.42
2018-11-11T02:13:11.355Z,10.42
2018-11-11T02:14:11.390Z,10.46
2018-11-11T02:15:11.421Z,10.38
2018-11-11T02:16:11.454Z,10.39
2018-11-11T02:17:11.522Z,10.43
2018-11-11T02:18:11.521Z,10.36
2018-11-11T02:19:11.555Z,10.32
2018-11-11T02:20:11.589Z,10.38
2018-11-11T02:21:11.652Z,10.32
2018-11-11T02:22:11.653Z,10.32
2018-11-11T02:23:11.696Z,10.38
2018-11-11T02:24:11.723Z,10.32
2018-11-11T02:25:11.752Z,10.43
2018-11-11T02:26:11.784Z,10.44
2018-11-11T02:27:11.819Z,10.38
2018-11-11T02:28:11.850Z,10.47
2018-11-11T02:29:11.886Z,10.38
2018-11-11T02:30:11.919Z,10.46
2018-11-11T02:31:11.950Z,10.49
2018-11-11T02:32:11.985Z,10.42
2018-11-11T02:33:12.017Z,10.35
2018-11-11T02:34:12.048Z,10.49
2018-11-11T02:35:12.087Z,10.43
2018-11-11T02:36:12.121Z,10.38
2018-11-11T02:37:12.150Z,10.42
2018-11-11T02:38:12.181Z,10.35
2018-11-11T02:39:12.214Z,10.34
2018-11-11T02:40:12.250Z,10.36
2018-11-11T02:41:12.280Z,10.34
2018-11-11T02:42:12.316Z,10.34
2018-11-11T02:43:12.348Z,10.29
2018-11-11T02:44:12.378Z,10.25
2018-11-11T02:45:12.416Z,10.34
2018-11-11T02:46:12.445Z,10.34
2018-11-11T02:47:12.477Z,10.26
2018-11-11T02:48:12.516Z,10.26
2018-11-11T02:49:12.545Z,10.22
2018-11-11T02:50:12.576Z,10.22
2018-11-11T02:51:12.607Z,10.25
2018-11-11T02:52:12.641Z,10.18
2018-11-11T02:53:12.677Z,10.22
2018-11-11T02:54:12.707Z,10.24
2018-11-11T02:55:12.739Z,10.17
2018-11-11T02:56:12.787Z,10.25
2018-11-11T02:57:12.806Z,10.24
2018-11-11T02:58:12.852Z,10.25
2018-11-11T02:59:12.874Z,10.20
2018-11-11T03:00:12.912Z,10.20
2018-11-11T03:01:12.944Z,10.14
2018-11-11T03:02:12.971Z,10.20
2018-11-11T03:03:13.006Z,10.16
2018-11-11T03:04:13.068Z,10.17
2018-11-11T03:05:13.070Z,10.26
2018-11-11T03:06:13.101Z,10.07
2018-11-11T03:07:13.137Z,10.07
2018-11-11T03:08:13.171Z,10.11
2018-11-11T03:09:13.201Z,10.09
2018-11-11T03:10:13.234Z,10.10
2018-11-11T03:11:13.265Z,10.10
2018-11-11T03:12:13.298Z,10.13
2018-11-11T03:13:13.331Z,10.07
2018-11-11T03:14:13.366Z,10.10
2018-11-11T03:15:13.401Z,10.22
2018-11-11T03:16:13.429Z,10.17
2018-11-11T03:17:13.468Z,10.14
2018-11-11T03:18:13.496Z,10.24
2018-11-11T03:19:13.528Z,10.25
2018-11-11T03:20:13.560Z,10.25
2018-11-11T03:21:13.593Z,10.25
2018-11-11T03:22:13.625Z,10.18
2018-11-11T03:23:13.659Z,10.22
2018-11-11T03:24:13.696Z,10.22
2018-11-11T03:25:13.727Z,10.20
2018-11-11T03:26:13.757Z,10.25
2018-11-11T03:27:13.794Z,10.18
2018-11-11T03:28:13.825Z,10.17
2018-11-11T03:29:13.856Z,10.20
2018-11-11T03:30:13.888Z,10.20
2018-11-11T03:31:13.922Z,10.17
2018-11-11T03:32:13.956Z,10.24
2018-11-11T03:33:13.990Z,10.20
2018-11-11T03:34:14.020Z,10.18
2018-11-11T03:35:14.054Z,10.20
2018-11-11T03:36:14.088Z,10.18
2018-11-11T03:37:14.119Z,10.22
2018-11-11T03:38:14.151Z,10.22
2018-11-11T03:39:14.185Z,10.17
2018-11-11T03:40:14.218Z,10.14
2018-11-11T03:41:14.251Z,10.22
2018-11-11T03:42:14.287Z,10.09
2018-11-11T03:43:14.316Z,10.04
2018-11-11T03:44:14.349Z,10.11
2018-11-11T03:45:14.384Z,10.10
2018-11-11T03:46:14.418Z,10.14
2018-11-11T03:47:14.448Z,10.09
2018-11-11T03:48:14.480Z,10.14
2018-11-11T03:49:14.513Z,10.07
2018-11-11T03:50:14.548Z,10.10
2018-11-11T03:51:14.577Z,10.10
2018-11-11T03:52:14.612Z,10.11
2018-11-11T03:53:14.648Z,10.10
2018-11-11T03:54:14.683Z,10.14
2018-11-11T03:55:14.711Z,10.13
2018-11-11T03:56:14.744Z,9.96
2018-11-11T03:57:14.776Z,10.04
2018-11-11T03:58:14.809Z,10.04
2018-11-11T03:59:14.843Z,9.96
2018-11-11T04:00:14.874Z,9.99
2018-11-11T04:01:14.910Z,9.91
2018-11-11T04:02:14.937Z,10.01
2018-11-11T04:03:14.973Z,9.98
2018-11-11T04:04:15.006Z,9.98
2018-11-11T04:05:15.039Z,10.06
2018-11-11T04:06:15.072Z,10.07
2018-11-11T04:07:15.104Z,9.99
2018-11-11T04:08:15.139Z,10.11
2018-11-11T04:09:15.169Z,10.14
2018-11-11T04:10:15.248Z,10.11
2018-11-11T04:11:15.234Z,10.18
2018-11-11T04:12:15.267Z,10.10
2018-11-11T04:13:15.300Z,9.99
2018-11-11T04:14:15.334Z,10.04
2018-11-11T04:15:15.365Z,10.04
2018-11-11T04:16:15.399Z,9.99
2018-11-11T04:17:15.432Z,9.95
2018-11-11T04:18:15.462Z,9.96
2018-11-11T04:19:15.496Z,9.93
2018-11-11T04:20:15.528Z,9.91
2018-11-11T04:21:15.563Z,9.91
2018-11-11T04:22:15.594Z,9.95
2018-11-11T04:23:15.626Z,9.85
2018-11-11T04:24:15.659Z,9.98
2018-11-11T04:25:15.693Z,9.75
2018-11-11T04:26:15.725Z,9.74
2018-11-11T04:27:15.758Z,9.92
2018-11-11T04:28:15.790Z,9.92
2018-11-11T04:29:15.822Z,9.91
2018-11-11T04:30:15.903Z,9.89
2018-11-11T04:31:15.887Z,9.91
2018-11-11T04:32:15.924Z,9.96
2018-11-11T04:33:15.953Z,9.81
2018-11-11T04:34:15.988Z,9.83
2018-11-11T04:35:16.017Z,9.85
2018-11-11T04:36:16.051Z,9.83
2018-11-11T04:37:16.082Z,9.85
2018-11-11T04:38:16.114Z,9.83
2018-11-11T04:39:16.161Z,9.80
2018-11-11T04:40:16.180Z,9.73
2018-11-11T04:41:16.213Z,9.68
2018-11-11T04:42:16.245Z,9.74
2018-11-11T04:43:16.292Z,9.75
2018-11-11T04:44:16.311Z,9.73
2018-11-11T04:45:16.342Z,9.80
2018-11-11T04:46:16.386Z,9.78
2018-11-11T04:47:16.408Z,9.86
2018-11-11T04:48:16.439Z,9.78
2018-11-11T04:49:16.472Z,9.88
2018-11-11T04:50:16.507Z,9.86
2018-11-11T04:51:16.542Z,9.83
2018-11-11T04:52:16.571Z,9.81
2018-11-11T04:53:16.602Z,9.78
2018-11-11T04:54:16.639Z,9.80
2018-11-11T04:55:16.667Z,9.73
2018-11-11T04:56:16.700Z,9.77
2018-11-11T04:57:16.732Z,9.73
2018-11-11T04:58:16.763Z,9.68
2018-11-11T04:59:16.797Z,9.67
2018-11-11T05:00:16.830Z,9.65
2018-11-11T05:01:16.902Z,9.73
2018-11-11T05:02:16.894Z,9.63
2018-11-11T05:03:16.927Z,9.70
2018-11-11T05:04:16.959Z,9.63
2018-11-11T05:05:16.992Z,9.65
2018-11-11T05:06:17.026Z,9.63
2018-11-11T05:07:17.056Z,9.58
2018-11-11T05:08:17.087Z,9.63
2018-11-11T05:09:17.124Z,9.67
2018-11-11T05:10:17.153Z,9.70
2018-11-11T05:11:17.185Z,9.63
2018-11-11T05:12:17.218Z,9.62
2018-11-11T05:13:17.252Z,9.68
2018-11-11T05:14:17.282Z,9.65
2018-11-11T05:15:17.317Z,9.65
2018-11-11T05:16:17.348Z,9.75
2018-11-11T05:17:17.381Z,9.74
2018-11-11T05:18:17.413Z,9.68
2018-11-11T05:19:17.446Z,9.77
2018-11-11T05:20:17.478Z,9.68
2018-11-11T05:21:17.511Z,9.71
2018-11-11T05:22:17.544Z,9.74
2018-11-11T05:23:17.579Z,9.70
2018-11-11T05:24:17.607Z,9.70
2018-11-11T05:25:17.641Z,9.65
2018-11-11T05:26:17.672Z,9.75
2018-11-11T05:27:17.706Z,9.70
2018-11-11T05:28:17.738Z,9.75
2018-11-11T05:29:17.771Z,9.80
2018-11-11T05:30:17.803Z,9.73
2018-11-11T05:31:17.837Z,9.80
2018-11-11T05:32:17.873Z,9.81
2018-11-11T05:33:17.901Z,9.78
2018-11-11T05:34:17.931Z,9.83
2018-11-11T05:35:17.965Z,9.81
2018-11-11T05:36:18.002Z,9.77
2018-11-11T05:37:18.029Z,9.80
2018-11-11T05:38:18.061Z,9.80
2018-11-11T05:39:18.097Z,9.81
2018-11-11T05:40:18.127Z,9.78
2018-11-11T05:41:18.159Z,9.83
2018-11-11T05:42:18.191Z,9.86
2018-11-11T05:43:18.224Z,9.78
2018-11-11T05:44:18.257Z,9.78
2018-11-11T05:45:18.290Z,9.81
2018-11-11T05:46:18.321Z,9.86
2018-11-11T05:47:18.354Z,9.80
2018-11-11T05:48:18.387Z,9.83
2018-11-11T05:49:18.421Z,9.81
2018-11-11T05:50:18.451Z,9.78
2018-11-11T05:51:18.484Z,9.88
2018-11-11T05:52:18.518Z,9.77
2018-11-11T05:53:18.550Z,9.81
2018-11-11T05:54:18.582Z,9.85
2018-11-11T05:55:18.614Z,9.80
2018-11-11T05:56:18.647Z,9.81
2018-11-11T05:57:18.679Z,9.77
2018-11-11T05:58:18.711Z,9.74
2018-11-11T05:59:18.744Z,9.70
2018-11-11T06:00:18.776Z,9.73
2018-11-11T06:01:18.809Z,9.80
2018-11-11T06:02:18.841Z,9.78
2018-11-11T06:03:18.875Z,9.81
2018-11-11T06:04:18.907Z,9.81
2018-11-11T06:05:18.939Z,9.75
2018-11-11T06:06:18.971Z,9.80
2018-11-11T06:07:19.003Z,9.77
2018-11-11T06:08:19.037Z,9.86
2018-11-11T06:09:19.069Z,9.85
2018-11-11T06:10:19.101Z,9.81
2018-11-11T06:11:19.133Z,9.78
2018-11-11T06:12:19.167Z,9.92
2018-11-11T06:13:19.199Z,9.92
2018-11-11T06:14:19.231Z,9.88
2018-11-11T06:15:19.264Z,9.81
2018-11-11T06:16:19.296Z,9.88
2018-11-11T06:17:19.329Z,9.89
2018-11-11T06:18:19.361Z,9.92
2018-11-11T06:19:19.405Z,9.88
2018-11-11T06:20:19.426Z,9.91
2018-11-11T06:21:19.459Z,9.95
2018-11-11T06:22:19.490Z,9.91
2018-11-11T06:23:19.523Z,10.01
2018-11-11T06:24:19.555Z,9.95
2018-11-11T06:25:19.590Z,9.92
2018-11-11T06:26:19.621Z,9.86
2018-11-11T06:27:19.691Z,9.96
2018-11-11T06:28:19.690Z,9.88
2018-11-11T06:29:19.717Z,9.93
2018-11-11T06:30:19.751Z,9.91
2018-11-11T06:31:19.785Z,9.96
2018-11-11T06:32:19.815Z,9.95
2018-11-11T06:33:19.847Z,10.06
2018-11-11T06:34:19.880Z,9.99
2018-11-11T06:35:19.914Z,10.07
2018-11-11T06:36:19.950Z,10.01
2018-11-11T06:37:19.979Z,9.89
2018-11-11T06:38:20.011Z,9.95
2018-11-11T06:39:20.044Z,9.99
2018-11-11T06:40:20.077Z,9.91
2018-11-11T06:41:20.110Z,9.95
2018-11-11T06:42:20.149Z,9.95
2018-11-11T06:43:20.173Z,9.91
2018-11-11T06:44:20.207Z,9.92
2018-11-11T06:45:20.239Z,9.95
2018-11-11T06:46:20.269Z,9.99
2018-11-11T06:47:20.307Z,9.98
2018-11-11T06:48:20.338Z,10.02
2018-11-11T06:49:20.371Z,9.98
2018-11-11T06:50:20.401Z,10.07
2018-11-11T06:51:20.433Z,9.95
2018-11-11T06:52:20.467Z,10.01
2018-11-11T06:53:20.497Z,10.06
2018-11-11T06:54:20.533Z,9.96
2018-11-11T06:55:20.564Z,10.04
2018-11-11T06:56:20.597Z,9.95
2018-11-11T06:57:20.630Z,10.04
2018-11-11T06:58:20.661Z,9.96
2018-11-11T06:59:20.695Z,10.09
2018-11-11T07:00:20.728Z,10.01
2018-11-11T07:01:20.760Z,10.01
2018-11-11T07:02:20.792Z,10.07
2018-11-11T07:03:20.824Z,10.10
2018-11-11T07:04:20.861Z,10.10
2018-11-11T07:05:20.892Z,10.11
2018-11-11T07:06:20.923Z,10.10
2018-11-11T07:07:21.014Z,10.13
2018-11-11T07:08:20.989Z,10.17
2018-11-11T07:09:21.020Z,10.07
2018-11-11T07:10:21.054Z,10.10
2018-11-11T07:11:21.090Z,10.14
2018-11-11T07:12:21.118Z,10.24
2018-11-11T07:13:21.151Z,10.22
2018-11-11T07:14:21.187Z,10.06
2018-11-11T07:15:21.215Z,10.06
2018-11-11T07:16:21.249Z,10.11
2018-11-11T07:17:21.282Z,10.09
2018-11-11T07:18:21.313Z,10.06
2018-11-11T07:19:21.347Z,10.14
2018-11-11T07:20:21.381Z,10.10
2018-11-11T07:21:21.411Z,10.06
2018-11-11T07:22:21.443Z,10.04
2018-11-11T07:23:21.527Z,10.06
2018-11-11T07:24:21.516Z,10.02
2018-11-11T07:25:21.542Z,10.04
2018-11-11T07:26:21.575Z,10.09
2018-11-11T07:27:21.609Z,10.13
2018-11-11T07:28:21.640Z,10.07
2018-11-11T07:29:21.675Z,10.04
2018-11-11T07:30:21.710Z,10.10
2018-11-11T07:31:21.744Z,9.96
2018-11-11T07:32:21.771Z,10.04
2018-11-11T07:33:21.805Z,10.04
2018-11-11T07:34:21.836Z,9.96
2018-11-11T07:35:21.870Z,10.07
2018-11-11T07:36:21.903Z,10.07
2018-11-11T07:37:21.935Z,10.06
2018-11-11T07:38:21.966Z,10.17
2018-11-11T07:39:21.999Z,10.20
2018-11-11T07:40:22.033Z,10.09
2018-11-11T07:41:22.074Z,10.09
2018-11-11T07:42:22.164Z,10.10
2018-11-11T07:43:22.130Z,10.10
2018-11-11T07:44:22.161Z,10.13
2018-11-11T07:45:22.196Z,10.11
2018-11-11T07:46:22.228Z,10.13
2018-11-11T07:47:22.260Z,10.09
2018-11-11T07:48:22.295Z,10.16
2018-11-11T07:49:22.327Z,10.14
2018-11-11T07:50:22.361Z,10.22
2018-11-11T07:51:22.394Z,10.24
2018-11-11T07:52:22.431Z,10.22
2018-11-11T07:53:22.463Z,10.28
2018-11-11T07:54:22.489Z,10.22
2018-11-11T07:55:22.557Z,10.20
2018-11-11T07:56:22.555Z,10.22
2018-11-11T07:57:22.593Z,10.14
2018-11-11T07:58:22.627Z,10.24
2018-11-11T07:59:22.655Z,10.18
2018-11-11T08:00:22.693Z,10.20
2018-11-11T08:01:22.760Z,10.20
2018-11-11T08:02:22.751Z,10.22
2018-11-11T08:03:22.786Z,10.20
2018-11-11T08:04:22.819Z,10.17
2018-11-11T08:05:22.850Z,10.22
2018-11-11T08:06:22.882Z,10.20
2018-11-11T08:07:22.918Z,10.20
2018-11-11T08:08:22.948Z,10.20
2018-11-11T08:09:22.979Z,10.10
2018-11-11T08:10:23.013Z,10.17
2018-11-11T08:11:23.046Z,10.09
2018-11-11T08:12:23.080Z,10.06
2018-11-11T08:13:23.112Z,10.13
2018-11-11T08:14:23.144Z,10.07
2018-11-11T08:15:23.176Z,10.11
2018-11-11T08:16:23.210Z,10.06
2018-11-11T08:17:23.293Z,10.13
2018-11-11T08:18:23.273Z,10.07
2018-11-11T08:19:23.307Z,10.11
2018-11-11T08:20:23.339Z,10.09
2018-11-11T08:21:23.372Z,10.10
2018-11-11T08:22:23.404Z,10.07
2018-11-11T08:23:23.437Z,10.09
2018-11-11T08:24:23.472Z,10.14
2018-11-11T08:25:23.563Z,10.20
2018-11-11T08:26:23.533Z,10.18
2018-11-11T08:27:23.570Z,10.20
2018-11-11T08:28:23.598Z,10.24
2018-11-11T08:29:23.633Z,10.17
2018-11-11T08:30:23.668Z,10.22
2018-11-11T08:31:23.699Z,10.20
2018-11-11T08:32:23.792Z,10.20
2018-11-11T08:33:23.764Z,10.22
2018-11-11T08:34:27.373Z,10.10
2018-11-11T08:35:23.828Z,10.14
2018-11-11T08:36:23.861Z,10.18
2018-11-11T08:37:23.894Z,10.22
2018-11-11T08:38:23.926Z,10.26
2018-11-11T08:39:23.960Z,10.25
2018-11-11T08:40:24.024Z,10.34
2018-11-11T08:41:24.025Z,10.36
2018-11-11T08:42:24.057Z,10.29
2018-11-11T08:43:24.089Z,10.38
2018-11-11T08:44:24.123Z,10.47
2018-11-11T08:45:24.155Z,10.38
2018-11-11T08:46:24.186Z,10.42
2018-11-11T08:47:24.220Z,10.42
2018-11-11T08:48:24.351Z,10.44
2018-11-11T08:49:24.286Z,10.42
2018-11-11T08:50:24.317Z,10.39
2018-11-11T08:51:24.350Z,10.44
2018-11-11T08:52:24.384Z,10.54
2018-11-11T08:53:24.417Z,10.58
2018-11-11T08:54:24.447Z,10.52
2018-11-11T08:55:24.482Z,10.49
2018-11-11T08:56:24.516Z,10.51
2018-11-11T08:57:24.549Z,10.47
2018-11-11T08:58:24.580Z,10.39
2018-11-11T08:59:24.625Z,10.46
2018-11-11T09:00:24.647Z,10.44
2018-11-11T09:01:24.679Z,10.42
2018-11-11T09:02:24.712Z,10.39
2018-11-11T09:03:24.746Z,10.42
2018-11-11T09:04:24.776Z,10.44
2018-11-11T09:05:24.811Z,10.38
2018-11-11T09:06:24.846Z,10.36
2018-11-11T09:07:24.879Z,10.42
2018-11-11T09:08:24.912Z,10.44
2018-11-11T09:09:24.941Z,10.43
2018-11-11T09:10:24.974Z,10.39
2018-11-11T09:11:25.020Z,10.43
2018-11-11T09:12:25.040Z,10.43
2018-11-11T09:13:25.073Z,10.52
2018-11-11T09:14:25.103Z,10.46
2018-11-11T09:15:25.137Z,10.47
2018-11-11T09:16:25.179Z,10.52
2018-11-11T09:17:25.271Z,10.55
2018-11-11T09:18:25.234Z,10.60
2018-11-11T09:19:25.269Z,10.58
2018-11-11T09:20:25.300Z,10.57
2018-11-11T09:21:25.374Z,10.70
2018-11-11T09:22:25.371Z,10.63
2018-11-11T09:23:25.401Z,10.70
2018-11-11T09:24:25.433Z,10.57
2018-11-11T09:25:25.488Z,10.69
2018-11-11T09:26:25.497Z,10.57
2018-11-11T09:27:25.532Z,10.63
2018-11-11T09:28:25.562Z,10.65
2018-11-11T09:29:25.646Z,10.55
2018-11-11T09:30:25.764Z,10.65
2018-11-11T09:31:25.660Z,10.68
2018-11-11T09:32:25.694Z,10.68
2018-11-11T09:33:25.728Z,10.69
2018-11-11T09:34:25.760Z,10.68
2018-11-11T09:35:25.938Z,10.72
2018-11-11T09:36:25.827Z,10.70
2018-11-11T09:37:25.861Z,10.70
2018-11-11T09:38:25.890Z,10.72
2018-11-11T09:39:25.925Z,10.81
2018-11-11T09:40:25.997Z,10.73
2018-11-11T09:41:25.992Z,10.83
2018-11-11T09:42:26.056Z,10.84
2018-11-11T09:43:26.057Z,10.93
2018-11-11T09:44:26.090Z,10.88
2018-11-11T09:45:26.123Z,10.91
2018-11-11T09:46:26.153Z,10.95
2018-11-11T09:47:26.188Z,10.99
2018-11-11T09:48:26.222Z,11.02
2018-11-11T09:49:26.255Z,10.94
2018-11-11T09:50:26.285Z,10.99
2018-11-11T09:51:26.321Z,10.99
2018-11-11T09:52:26.356Z,11.02
2018-11-11T09:53:26.388Z,10.98
2018-11-11T09:54:26.419Z,10.95
2018-11-11T09:55:26.454Z,10.98
2018-11-11T09:56:26.485Z,10.91
2018-11-11T09:57:26.524Z,10.99
2018-11-11T09:58:26.607Z,10.90
2018-11-11T09:59:26.585Z,10.95
2018-11-11T10:00:26.620Z,10.90
2018-11-11T10:01:26.651Z,10.88
2018-11-11T10:02:26.683Z,10.86
2018-11-11T10:03:26.717Z,10.90
2018-11-11T10:04:26.760Z,10.93
2018-11-11T10:05:26.784Z,10.95
2018-11-11T10:06:26.864Z,10.87
2018-11-11T10:07:26.849Z,10.91
2018-11-11T10:08:26.882Z,10.90
2018-11-11T10:09:26.916Z,10.84
2018-11-11T10:10:26.947Z,10.81
2018-11-11T10:11:26.982Z,10.81
2018-11-11T10:12:27.073Z,10.76
2018-11-11T10:13:27.047Z,10.75
2018-11-11T10:14:27.079Z,10.78
2018-11-11T10:15:27.113Z,10.73
2018-11-11T10:16:27.147Z,10.76
2018-11-11T10:17:27.182Z,10.69
2018-11-11T10:18:27.212Z,10.75
2018-11-11T10:19:27.244Z,10.73
2018-11-11T10:20:27.401Z,10.70
2018-11-11T10:21:27.316Z,10.73
2018-11-11T10:22:27.343Z,10.65
2018-11-11T10:23:27.378Z,10.73
2018-11-11T10:24:27.410Z,10.66
2018-11-11T10:25:27.443Z,10.75
2018-11-11T10:26:27.474Z,10.75
2018-11-11T10:27:27.517Z,10.80
2018-11-11T10:28:27.542Z,10.81
2018-11-11T10:29:27.601Z,10.80
2018-11-11T10:30:27.609Z,10.75
2018-11-11T10:31:27.640Z,10.80
2018-11-11T10:32:27.673Z,10.78
2018-11-11T10:33:27.790Z,10.87
2018-11-11T10:34:27.741Z,10.80
2018-11-11T10:35:27.771Z,10.90
2018-11-11T10:36:27.805Z,10.86
2018-11-11T10:37:27.930Z,10.87
2018-11-11T10:38:27.871Z,10.88
2018-11-11T10:39:27.915Z,10.91
2018-11-11T10:40:27.937Z,10.86
2018-11-11T10:41:27.971Z,10.86
2018-11-11T10:42:28.002Z,10.87
2018-11-11T10:43:28.036Z,10.94
2018-11-11T10:44:28.148Z,10.86
2018-11-11T10:45:28.103Z,10.93
2018-11-11T10:46:28.135Z,10.76
2018-11-11T10:47:28.167Z,10.84
2018-11-11T10:48:28.201Z,10.87
2018-11-11T10:49:28.234Z,10.91
2018-11-11T10:50:28.266Z,10.90
2018-11-11T10:51:28.301Z,10.87
2018-11-11T10:52:28.334Z,10.87
2018-11-11T10:53:28.368Z,10.86
2018-11-11T10:54:28.481Z,10.76
2018-11-11T10:55:28.435Z,10.80
2018-11-11T10:56:28.464Z,10.76
2018-11-11T10:57:28.500Z,10.81
2018-11-11T10:58:28.532Z,10.83
2018-11-11T10:59:28.564Z,10.75
2018-11-11T11:00:28.597Z,10.83
2018-11-11T11:01:28.634Z,10.83
2018-11-11T11:02:28.660Z,10.76
2018-11-11T11:03:28.696Z,10.72
2018-11-11T11:04:28.730Z,10.81
2018-11-11T11:05:28.763Z,10.81
2018-11-11T11:06:28.794Z,10.78
2018-11-11T11:07:28.825Z,10.78
2018-11-11T11:08:28.860Z,10.80
2018-11-11T11:09:28.893Z,10.78
2018-11-11T11:10:28.927Z,10.80
2018-11-11T11:11:28.958Z,10.80
2018-11-11T11:12:28.992Z,10.81
2018-11-11T11:13:29.128Z,10.76
2018-11-11T11:14:29.056Z,10.81
2018-11-11T11:15:29.094Z,10.83
2018-11-11T11:16:29.125Z,10.76
2018-11-11T11:17:29.159Z,10.81
2018-11-11T11:18:29.188Z,10.80
2018-11-11T11:19:29.223Z,10.78
2018-11-11T11:20:29.253Z,10.72
2018-11-11T11:21:29.287Z,10.76
2018-11-11T11:22:29.321Z,10.72
2018-11-11T11:23:29.352Z,10.75
2018-11-11T11:24:29.386Z,10.68
2018-11-11T11:25:29.423Z,10.70
2018-11-11T11:26:29.449Z,10.70
2018-11-11T11:27:29.484Z,10.62
2018-11-11T11:28:29.516Z,10.70
2018-11-11T11:29:29.548Z,10.55
2018-11-11T11:30:29.581Z,10.66
2018-11-11T11:31:29.682Z,10.69
2018-11-11T11:32:29.649Z,10.60
2018-11-11T11:33:29.681Z,10.57
2018-11-11T11:34:29.711Z,10.60
2018-11-11T11:35:29.808Z,10.70
2018-11-11T11:36:29.778Z,10.63
2018-11-11T11:37:29.812Z,10.60
2018-11-11T11:38:29.860Z,10.54
2018-11-11T11:39:29.880Z,10.65
2018-11-11T11:40:29.908Z,10.69
2018-11-11T11:41:30.097Z,10.65
2018-11-11T11:42:29.972Z,10.58
2018-11-11T11:43:30.009Z,10.62
2018-11-11T11:44:30.039Z,10.60
2018-11-11T11:45:30.071Z,10.62
2018-11-11T11:46:30.104Z,10.60
2018-11-11T11:47:30.214Z,10.57
2018-11-11T11:48:30.171Z,10.60
2018-11-11T11:49:30.218Z,10.68
2018-11-11T11:50:30.246Z,10.68
2018-11-11T11:51:30.279Z,10.72
2018-11-11T11:52:30.375Z,10.70
2018-11-11T11:53:30.348Z,10.69
2018-11-11T11:54:30.365Z,10.73
2018-11-11T11:55:30.411Z,10.70
2018-11-11T11:56:30.432Z,10.73
2018-11-11T11:57:30.472Z,10.76
2018-11-11T11:58:30.495Z,10.80
2018-11-11T11:59:30.529Z,10.81
2018-11-11T12:00:30.566Z,10.81
2018-11-11T12:01:30.603Z,10.80
2018-11-11T12:02:30.632Z,10.72
2018-11-11T12:03:30.666Z,10.80
2018-11-11T12:04:30.692Z,10.69
2018-11-11T12:05:30.730Z,10.80
2018-11-11T12:06:30.757Z,10.75
2018-11-11T12:07:30.789Z,10.68
2018-11-11T12:08:30.857Z,10.68
2018-11-11T12:09:30.858Z,10.72
2018-11-11T12:10:30.888Z,10.66
2018-11-11T12:11:30.926Z,10.69
2018-11-11T12:12:30.955Z,10.72
2018-11-11T12:13:30.987Z,10.70
2018-11-11T12:14:31.017Z,10.69
2018-11-11T12:15:31.052Z,10.69
2018-11-11T12:16:31.139Z,10.69
2018-11-11T12:17:31.119Z,10.69
2018-11-11T12:18:31.162Z,10.69
2018-11-11T12:19:31.181Z,10.68
2018-11-11T12:20:31.213Z,10.73
2018-11-11T12:21:31.248Z,10.68
2018-11-11T12:22:31.281Z,10.80
2018-11-11T12:23:31.312Z,10.78
2018-11-11T12:24:31.345Z,10.76
2018-11-11T12:25:31.377Z,10.80
2018-11-11T12:26:31.416Z,10.81
2018-11-11T12:27:31.443Z,10.84
2018-11-11T12:28:31.478Z,10.84
2018-11-11T12:29:31.511Z,10.84
2018-11-11T12:30:31.663Z,10.94
2018-11-11T12:31:31.576Z,10.93
2018-11-11T12:32:31.609Z,10.99
2018-11-11T12:33:31.641Z,10.99
2018-11-11T12:34:31.673Z,10.99
2018-11-11T12:35:31.707Z,11.02
2018-11-11T12:36:31.740Z,11.16
2018-11-11T12:37:31.773Z,11.23
2018-11-11T12:38:31.803Z,11.30
2018-11-11T12:39:31.981Z,11.30
2018-11-11T12:40:31.871Z,11.41
2018-11-11T12:41:31.905Z,11.44
2018-11-11T12:42:31.936Z,11.53
2018-11-11T12:43:31.970Z,11.54
2018-11-11T12:44:32.007Z,11.57
2018-11-11T12:45:32.035Z,11.69
2018-11-11T12:46:32.072Z,11.72
2018-11-11T12:47:32.102Z,11.70
2018-11-11T12:48:32.135Z,11.70
2018-11-11T12:49:32.170Z,11.77
2018-11-11T12:50:32.250Z,11.70
2018-11-11T12:51:32.234Z,11.75
2018-11-11T12:52:32.272Z,11.66
2018-11-11T12:53:32.302Z,11.66
2018-11-11T12:54:32.336Z,11.67
2018-11-11T12:55:32.433Z,11.74
2018-11-11T12:56:32.402Z,11.69
2018-11-11T12:57:32.436Z,11.72